createdAt,value
2018-10-21T00:00:22.113Z,102803.93
2018-10-21T00:02:51.304Z,102795.27
2018-10-21T00:05:21.099Z,102798.23
2018-10-21T00:07:50.983Z,102796.63
2018-10-21T00:10:20.745Z,102796.08
2018-10-21T00:12:50.533Z,102800.72
2018-10-21T00:15:20.703Z,102797.45
2018-10-21T00:17:49.471Z,102801.52
2018-10-21T00:20:18.271Z,102794.73
2018-10-21T00:22:47.103Z,102800.45
2018-10-21T00:25:15.874Z,102799.09
2018-10-21T00:27:44.724Z,102807.52
2018-10-21T00:30:13.735Z,102801.53
2018-10-21T00:32:47.880Z,102806.42
2018-10-21T00:35:17.483Z,102803.70
2018-10-21T00:37:46.399Z,102803.18
2018-10-21T00:40:15.532Z,102803.98
2018-10-21T00:42:44.358Z,102803.71
2018-10-21T00:45:13.949Z,102800.47
2018-10-21T00:47:42.684Z,102806.16
2018-10-21T00:50:12.247Z,102805.08
2018-10-21T00:52:41.040Z,102799.65
2018-10-21T00:55:10.664Z,102794.77
2018-10-21T00:57:39.821Z,102801.84
2018-10-21T01:00:10.752Z,102804.80
2018-10-21T01:02:39.962Z,102799.37
2018-10-21T01:05:10.016Z,102801.56
2018-10-21T01:07:38.951Z,102798.84
2018-10-21T01:10:10.085Z,102799.13
2018-10-21T01:12:38.916Z,102798.29
2018-10-21T01:15:09.564Z,102795.29
2018-10-21T01:17:38.363Z,102791.22
2018-10-21T01:20:08.790Z,102783.06
2018-10-21T01:22:37.916Z,102790.97
2018-10-21T01:25:07.357Z,102789.86
2018-10-21T01:27:36.311Z,102780.62
2018-10-21T01:30:05.945Z,102779.27
2018-10-21T01:32:34.727Z,102778.73
2018-10-21T01:35:03.699Z,102782.25
2018-10-21T01:37:32.547Z,102783.33
2018-10-21T01:40:41.807Z,102783.61
2018-10-21T01:43:12.035Z,102783.88
2018-10-21T01:45:41.088Z,102779.23
2018-10-21T01:48:11.837Z,102777.34
2018-10-21T01:50:41.001Z,102775.15
2018-10-21T01:53:11.459Z,102776.78
2018-10-21T01:55:40.449Z,102781.69
2018-10-21T01:58:09.228Z,102782.21
2018-10-21T02:00:38.732Z,102772.44
2018-10-21T02:03:07.835Z,102774.08
2018-10-21T02:05:37.262Z,102767.00
2018-10-21T02:08:06.465Z,102768.12
2018-10-21T02:10:35.632Z,102762.69
2018-10-21T02:13:04.616Z,102771.09
2018-10-21T02:15:33.546Z,102765.66
2018-10-21T02:18:03.227Z,102773.28
2018-10-21T02:20:32.139Z,102763.49
2018-10-21T02:23:00.957Z,102763.75
2018-10-21T02:25:29.794Z,102761.58
2018-10-21T02:27:58.704Z,102752.86
2018-10-21T02:30:29.707Z,102749.06
2018-10-21T02:32:59.132Z,102753.14
2018-10-21T02:35:28.225Z,102746.36
2018-10-21T02:37:57.898Z,102743.64
2018-10-21T02:41:51.268Z,102740.38
2018-10-21T02:44:21.858Z,102750.71
2018-10-21T02:46:52.776Z,102749.88
2018-10-21T02:49:22.133Z,102752.86
2018-10-21T02:51:56.609Z,102746.34
2018-10-21T02:54:28.862Z,102752.84
2018-10-21T02:56:57.774Z,102755.56
2018-10-21T02:59:26.799Z,102758.55
2018-10-21T03:01:55.725Z,102749.60
2018-10-21T03:04:25.147Z,102749.60
2018-10-21T03:06:53.918Z,102751.77
2018-10-21T03:09:23.033Z,102745.53
2018-10-21T03:11:51.875Z,102743.89
2018-10-21T03:14:20.694Z,102742.25
2018-10-21T03:16:49.831Z,102747.40
2018-10-21T03:19:19.018Z,102745.76
2018-10-21T03:21:47.898Z,102746.86
2018-10-21T03:24:17.209Z,102744.67
2018-10-21T03:26:47.484Z,102742.51
2018-10-21T03:29:16.287Z,102737.08
2018-10-21T03:31:45.399Z,102738.43
2018-10-21T03:34:14.201Z,102730.56
2018-10-21T03:36:43.162Z,102735.15
2018-10-21T03:39:12.299Z,102733.78
2018-10-21T03:41:41.449Z,102739.77
2018-10-21T03:44:10.493Z,102734.89
2018-10-21T03:46:39.351Z,102730.55
2018-10-21T03:49:08.166Z,102735.70
2018-10-21T03:51:36.978Z,102727.55
2018-10-21T03:54:05.912Z,102734.34
2018-10-21T03:56:35.056Z,102728.63
2018-10-21T03:59:04.306Z,102728.09
2018-10-21T04:01:33.407Z,102721.31
2018-10-21T04:04:02.871Z,102720.75
2018-10-21T04:06:31.967Z,102717.23
2018-10-21T04:09:00.814Z,102716.95
2018-10-21T04:11:29.946Z,102718.83
2018-10-21T04:13:58.746Z,102721.77
2018-10-21T04:16:27.640Z,102720.67
2018-10-21T04:18:56.696Z,102717.70
2018-10-21T04:21:25.832Z,102715.50
2018-10-21T04:23:55.195Z,102712.51
2018-10-21T04:26:24.040Z,102716.06
2018-10-21T04:28:52.797Z,102712.26
2018-10-21T04:31:21.918Z,102708.18
2018-10-21T04:33:51.373Z,102708.42
2018-10-21T04:36:27.318Z,102702.17
2018-10-21T04:40:14.392Z,102699.46
2018-10-21T04:42:43.357Z,102696.46
2018-10-21T04:45:13.390Z,102692.38
2018-10-21T04:47:42.889Z,102686.14
2018-10-21T04:50:12.233Z,102686.95
2018-10-21T04:52:41.061Z,102689.14
2018-10-21T04:55:12.207Z,102684.52
2018-10-21T04:57:42.275Z,102682.09
2018-10-21T05:00:16.235Z,102678.02
2018-10-21T05:02:44.993Z,102686.44
2018-10-21T05:05:15.023Z,102680.73
2018-10-21T05:07:43.867Z,102682.90
2018-10-21T05:10:22.678Z,102680.19
2018-10-21T05:12:52.251Z,102680.17
2018-10-21T05:15:21.741Z,102674.75
2018-10-21T05:17:50.863Z,102671.78
2018-10-21T05:20:19.941Z,102675.02
2018-10-21T05:22:49.176Z,102677.73
2018-10-21T05:25:17.969Z,102680.16
2018-10-21T05:27:47.166Z,102679.34
2018-10-21T05:30:16.069Z,102684.23
2018-10-21T05:32:45.014Z,102685.03
2018-10-21T05:35:15.088Z,102686.09
2018-10-21T05:37:44.218Z,102679.56
2018-10-21T05:40:15.988Z,102678.45
2018-10-21T05:42:45.198Z,102681.71
2018-10-21T05:45:13.963Z,102679.25
2018-10-21T05:47:43.097Z,102680.86
2018-10-21T05:50:13.392Z,102685.18
2018-10-21T05:52:42.461Z,102684.86
2018-10-21T05:55:12.124Z,102688.88
2018-10-21T05:57:41.057Z,102684.78
2018-10-21T06:00:14.569Z,102690.72
2018-10-21T06:02:43.480Z,102683.89
2018-10-21T06:05:23.658Z,102688.21
2018-10-21T06:07:52.813Z,102686.53
2018-10-21T06:10:21.580Z,102692.20
2018-10-21T06:12:50.408Z,102692.44
2018-10-21T06:15:19.254Z,102697.32
2018-10-21T06:17:48.380Z,102702.72
2018-10-21T06:20:35.288Z,102703.79
2018-10-21T06:23:04.183Z,102696.70
2018-10-21T06:25:33.338Z,102698.59
2018-10-21T06:28:02.232Z,102696.92
2018-10-21T06:30:31.140Z,102699.61
2018-10-21T06:33:00.372Z,102698.78
2018-10-21T06:35:29.206Z,102707.69
2018-10-21T06:37:58.332Z,102711.22
2018-10-21T06:40:27.378Z,102706.05
2018-10-21T06:42:56.670Z,102710.09
2018-10-21T06:45:25.649Z,102724.45
2018-10-21T06:47:54.726Z,102726.36
2018-10-21T06:50:23.631Z,102726.88
2018-10-21T06:52:52.630Z,102728.00
2018-10-21T06:55:21.395Z,102729.58
2018-10-21T06:57:50.381Z,102725.00
2018-10-21T07:00:19.148Z,102735.31
2018-10-21T07:02:47.963Z,102739.41
2018-10-21T07:05:27.971Z,102740.78
2018-10-21T07:07:56.848Z,102739.20
2018-10-21T07:10:26.198Z,102735.95
2018-10-21T07:12:55.077Z,102737.09
2018-10-21T07:15:24.160Z,102739.86
2018-10-21T07:17:52.961Z,102734.48
2018-10-21T07:20:23.235Z,102734.52
2018-10-21T07:22:52.335Z,102740.30
2018-10-21T07:25:21.149Z,102738.17
2018-10-21T07:27:50.234Z,102742.30
2018-10-21T07:30:19.256Z,102744.50
2018-10-21T07:32:48.151Z,102745.92
2018-10-21T07:35:16.951Z,102742.98
2018-10-21T07:37:45.771Z,102750.05
2018-10-21T07:40:14.801Z,102745.78
2018-10-21T07:42:43.912Z,102758.28
2018-10-21T07:45:13.224Z,102746.91
2018-10-21T07:47:42.518Z,102753.47
2018-10-21T07:50:11.414Z,102755.66
2018-10-21T07:52:40.490Z,102760.00
2018-10-21T07:55:13.722Z,102754.59
2018-10-21T07:57:42.591Z,102763.61
2018-10-21T08:00:11.731Z,102757.13
2018-10-21T08:02:40.791Z,102757.16
2018-10-21T08:05:19.910Z,102766.96
2018-10-21T08:07:59.852Z,102761.27
2018-10-21T08:10:28.695Z,102763.74
2018-10-21T08:12:57.514Z,102762.41
2018-10-21T08:15:27.340Z,102772.19
2018-10-21T08:17:56.209Z,102761.08
2018-10-21T08:20:25.463Z,102760.55
2018-10-21T08:22:54.400Z,102756.48
2018-10-21T08:25:23.314Z,102758.66
2018-10-21T08:27:52.328Z,102761.92
2018-10-21T08:30:21.181Z,102755.71
2018-10-21T08:32:50.191Z,102753.00
2018-10-21T08:35:19.997Z,102761.18
2018-10-21T08:37:49.092Z,102758.20
2018-10-21T08:40:17.915Z,102759.02
2018-10-21T08:42:46.699Z,102757.11
2018-10-21T08:45:15.482Z,102758.76
2018-10-21T08:47:44.341Z,102752.49
2018-10-21T08:50:14.018Z,102753.86
2018-10-21T08:52:43.078Z,102754.14
2018-10-21T08:55:12.653Z,102751.95
2018-10-21T08:57:41.801Z,102752.47
2018-10-21T09:00:13.774Z,102755.22
2018-10-21T09:02:43.150Z,102756.30
2018-10-21T09:05:13.104Z,102755.22
2018-10-21T09:07:43.257Z,102758.17
2018-10-21T09:10:13.250Z,102757.64
2018-10-21T09:12:42.988Z,102757.34
2018-10-21T09:15:14.769Z,102754.58
2018-10-21T09:17:44.237Z,102758.11
2018-10-21T09:20:16.134Z,102752.89
2018-10-21T09:22:44.924Z,102748.23
2018-10-21T09:25:14.203Z,102754.73
2018-10-21T09:27:44.020Z,102750.91
2018-10-21T09:30:15.509Z,102753.89
2018-10-21T09:32:44.364Z,102749.48
2018-10-21T09:35:17.671Z,102756.22
2018-10-21T09:37:47.012Z,102752.38
2018-10-21T09:40:17.249Z,102745.00
2018-10-21T09:42:46.949Z,102748.52
2018-10-21T09:45:17.444Z,102742.52
2018-10-21T09:47:46.861Z,102745.45
2018-10-21T09:50:15.783Z,102750.34
2018-10-21T09:52:44.665Z,102747.59
2018-10-21T09:55:20.584Z,102750.55
2018-10-21T09:57:50.211Z,102746.13
2018-10-21T10:00:24.395Z,102745.81
2018-10-21T10:02:58.384Z,102742.50
2018-10-21T10:05:27.322Z,102743.79
2018-10-21T10:07:56.547Z,102735.56
2018-10-21T10:10:25.982Z,102739.09
2018-10-21T10:12:55.064Z,102733.53
2018-10-21T10:15:24.201Z,102728.57
2018-10-21T10:17:53.366Z,102736.70
2018-10-21T10:20:22.154Z,102725.37
2018-10-21T10:22:51.353Z,102722.57
2018-10-21T10:25:20.555Z,102715.91
2018-10-21T10:27:49.642Z,102720.22
2018-10-21T10:30:18.495Z,102718.03
2018-10-21T10:32:47.413Z,102715.75
2018-10-21T10:35:16.295Z,102709.39
2018-10-21T10:37:45.171Z,102704.67
2018-10-21T10:40:14.802Z,102696.92
2018-10-21T10:42:45.044Z,102701.99
2018-10-21T10:45:15.277Z,102700.59
2018-10-21T10:47:44.414Z,102701.86
2018-10-21T10:50:13.250Z,102696.56
2018-10-21T10:52:42.212Z,102690.92
2018-10-21T10:55:11.179Z,102689.48
2018-10-21T10:57:46.231Z,102684.52
2018-10-21T11:00:15.275Z,102680.00
2018-10-21T11:02:44.371Z,102676.02
2018-10-21T11:05:13.345Z,102671.83
2018-10-21T11:07:42.461Z,102670.98
2018-10-21T11:10:11.998Z,102668.21
2018-10-21T11:12:40.877Z,102659.35
2018-10-21T11:15:10.027Z,102662.09
2018-10-21T11:17:38.971Z,102658.06
2018-10-21T11:20:07.843Z,102659.73
2018-10-21T11:22:36.900Z,102654.27
2018-10-21T11:25:07.945Z,102650.42
2018-10-21T11:27:37.108Z,102660.58
2018-10-21T11:30:06.638Z,102658.67
2018-10-21T11:32:35.443Z,102662.12
2018-10-21T11:35:04.784Z,102650.03
2018-10-21T11:37:34.037Z,102661.62
2018-10-21T11:40:02.922Z,102656.69
2018-10-21T11:42:32.098Z,102655.59
2018-10-21T11:45:00.872Z,102660.88
2018-10-21T11:47:29.620Z,102652.27
2018-10-21T11:49:58.763Z,102658.14
2018-10-21T11:52:27.635Z,102647.39
2018-10-21T11:54:56.466Z,102646.52
2018-10-21T11:57:25.292Z,102642.22
2018-10-21T11:59:54.083Z,102634.23
2018-10-21T12:02:22.826Z,102637.38
2018-10-21T12:04:51.972Z,102637.28
2018-10-21T12:07:21.286Z,102636.48
2018-10-21T12:09:50.090Z,102632.69
2018-10-21T12:12:19.005Z,102627.70
2018-10-21T12:14:48.198Z,102625.48
2018-10-21T12:17:17.321Z,102625.43
2018-10-21T12:19:46.153Z,102625.97
2018-10-21T12:22:15.115Z,102623.84
2018-10-21T12:24:43.762Z,102621.37
2018-10-21T12:27:12.554Z,102620.26
2018-10-21T12:29:42.032Z,102618.84
2018-10-21T12:32:11.274Z,102615.42
2018-10-21T12:34:40.281Z,102613.70
2018-10-21T12:37:09.389Z,102614.70
2018-10-21T12:39:38.247Z,102611.09
2018-10-21T12:42:07.196Z,102610.21
2018-10-21T12:44:36.330Z,102608.05
2018-10-21T12:47:05.783Z,102604.10
2018-10-21T12:49:34.558Z,102606.80
2018-10-21T12:52:03.405Z,102601.50
2018-10-21T12:54:32.575Z,102599.81
2018-10-21T12:57:04.382Z,102591.67
2018-10-21T12:59:33.542Z,102585.93
2018-10-21T13:02:02.664Z,102583.77
2018-10-21T13:04:31.479Z,102581.88
2018-10-21T13:07:01.224Z,102581.39
2018-10-21T13:09:29.971Z,102577.50
2018-10-21T13:11:59.081Z,102573.39
2018-10-21T13:14:28.148Z,102573.70
2018-10-21T13:16:57.260Z,102578.92
2018-10-21T13:19:26.107Z,102574.07
2018-10-21T13:21:55.240Z,102575.54
2018-10-21T13:24:24.386Z,102574.17
2018-10-21T13:26:53.135Z,102569.63
2018-10-21T13:29:21.923Z,102568.26
2018-10-21T13:31:51.029Z,102566.11
2018-10-21T13:34:19.910Z,102564.69
2018-10-21T13:36:49.191Z,102561.64
2018-10-21T13:39:18.410Z,102564.64
2018-10-21T13:41:47.478Z,102569.27
2018-10-21T13:44:16.556Z,102560.03
2018-10-21T13:46:45.678Z,102561.36
2018-10-21T13:49:14.905Z,102556.67
2018-10-21T13:51:44.105Z,102550.67
2018-10-21T13:54:13.133Z,102559.78
2018-10-21T13:56:41.905Z,102550.86
2018-10-21T13:59:10.815Z,102552.65
2018-10-21T14:01:39.511Z,102544.43
2018-10-21T14:04:08.640Z,102543.50
2018-10-21T14:06:37.737Z,102540.13
2018-10-21T14:09:09.640Z,102534.38
2018-10-21T14:11:38.951Z,102533.28
2018-10-21T14:14:09.687Z,102531.17
2018-10-21T14:16:38.495Z,102531.22
2018-10-21T14:19:07.667Z,102524.42
2018-10-21T14:21:36.414Z,102524.73
2018-10-21T14:24:05.268Z,102526.67
2018-10-21T14:26:34.250Z,102517.45
2018-10-21T14:29:03.047Z,102517.81
2018-10-21T14:31:32.135Z,102524.77
2018-10-21T14:34:01.167Z,102514.30
2018-10-21T14:36:30.263Z,102514.92
2018-10-21T14:38:59.676Z,102517.81
2018-10-21T14:41:28.840Z,102514.86
2018-10-21T14:43:57.975Z,102507.42
2018-10-21T14:46:26.871Z,102503.81
2018-10-21T14:48:56.394Z,102505.39
2018-10-21T14:51:25.254Z,102503.66
2018-10-21T14:53:56.113Z,102501.38
2018-10-21T14:56:24.897Z,102501.98
2018-10-21T14:58:53.978Z,102496.02
2018-10-21T15:01:22.796Z,102499.59
2018-10-21T15:03:52.324Z,102501.33
2018-10-21T15:06:21.518Z,102493.91
2018-10-21T15:08:50.350Z,102494.84
2018-10-21T15:11:19.125Z,102491.90
2018-10-21T15:13:47.977Z,102489.16
2018-10-21T15:16:17.418Z,102488.72
2018-10-21T15:18:46.211Z,102484.14
2018-10-21T15:21:15.057Z,102491.96
2018-10-21T15:23:43.934Z,102481.06
2018-10-21T15:26:13.232Z,102484.20
2018-10-21T15:28:42.331Z,102479.30
2018-10-21T15:31:11.706Z,102481.47
2018-10-21T15:33:40.774Z,102479.58
2018-10-21T15:36:09.533Z,102479.30
2018-10-21T15:38:38.365Z,102471.09
2018-10-21T15:41:07.175Z,102473.71
2018-10-21T15:43:35.948Z,102462.03
2018-10-21T15:46:05.138Z,102462.88
2018-10-21T15:48:33.996Z,102461.06
2018-10-21T15:51:03.303Z,102454.58
2018-10-21T15:53:32.551Z,102456.05
2018-10-21T15:56:01.484Z,102449.83
2018-10-21T15:58:30.256Z,102455.07
2018-10-21T16:00:59.099Z,102456.44
2018-10-21T16:03:28.234Z,102457.28
2018-10-21T16:05:57.595Z,102451.06
2018-10-21T16:08:26.643Z,102453.01
2018-10-21T16:10:55.679Z,102449.48
2018-10-21T16:13:24.699Z,102449.56
2018-10-21T16:15:53.575Z,102455.12
2018-10-21T16:18:22.535Z,102448.38
2018-10-21T16:20:51.839Z,102447.92
2018-10-21T16:23:21.060Z,102449.02
2018-10-21T16:25:50.506Z,102447.51
2018-10-21T16:28:20.045Z,102444.59
2018-10-21T16:30:48.844Z,102449.34
2018-10-21T16:33:17.939Z,102440.40
2018-10-21T16:35:46.734Z,102454.67
2018-10-21T16:38:16.222Z,102452.28
2018-10-21T16:40:45.386Z,102448.52
2018-10-21T16:43:14.195Z,102450.23
2018-10-21T16:45:43.273Z,102457.40
2018-10-21T16:48:12.179Z,102451.97
2018-10-21T16:50:41.296Z,102457.78
2018-10-21T16:53:10.689Z,102451.89
2018-10-21T16:55:46.006Z,102446.54
2018-10-21T16:58:14.746Z,102448.20
2018-10-21T17:00:43.781Z,102445.55
2018-10-21T17:03:12.419Z,102438.22
2018-10-21T17:05:41.735Z,102450.05
2018-10-21T17:08:10.767Z,102447.37
2018-10-21T17:10:40.403Z,102443.35
2018-10-21T17:13:09.291Z,102447.81
2018-10-21T17:15:39.387Z,102445.45
2018-10-21T17:18:08.627Z,102449.34
2018-10-21T17:20:37.678Z,102455.72
2018-10-21T17:23:06.789Z,102446.82
2018-10-21T17:25:35.892Z,102451.80
2018-10-21T17:28:04.938Z,102453.22
2018-10-21T17:30:33.784Z,102456.59
2018-10-21T17:33:02.610Z,102453.20
2018-10-21T17:35:31.558Z,102453.81
2018-10-21T17:38:00.483Z,102454.92
2018-10-21T17:40:29.265Z,102443.30
2018-10-21T17:42:58.453Z,102445.05
2018-10-21T17:45:28.344Z,102447.91
2018-10-21T17:47:57.258Z,102447.77
2018-10-21T17:50:25.996Z,102448.68
2018-10-21T17:52:55.048Z,102449.23
2018-10-21T17:55:24.687Z,102447.12
2018-10-21T17:57:53.812Z,102450.47
2018-10-21T18:00:23.306Z,102448.62
2018-10-21T18:02:52.128Z,102448.64
2018-10-21T18:05:20.917Z,102449.19
2018-10-21T18:07:50.430Z,102450.61
2018-10-21T18:10:19.258Z,102451.14
2018-10-21T18:12:48.376Z,102443.27
2018-10-21T18:15:17.286Z,102442.19
2018-10-21T18:17:46.169Z,102443.84
2018-10-21T18:20:15.005Z,102442.20
2018-10-21T18:22:43.869Z,102437.83
2018-10-21T18:25:12.909Z,102428.90
2018-10-21T18:27:42.746Z,102422.69
2018-10-21T18:30:12.708Z,102427.87
2018-10-21T18:32:42.285Z,102423.52
2018-10-21T18:35:13.630Z,102428.66
2018-10-21T18:37:42.631Z,102437.40
2018-10-21T18:40:12.188Z,102433.34
2018-10-21T18:42:41.712Z,102432.54
2018-10-21T18:45:12.564Z,102430.36
2018-10-21T18:47:41.886Z,102435.57
2018-10-21T18:50:12.858Z,102438.58
2018-10-21T18:52:42.121Z,102438.03
2018-10-21T18:55:11.898Z,102439.12
2018-10-21T18:57:41.255Z,102444.28
2018-10-21T19:00:13.741Z,102443.20
2018-10-21T19:02:42.852Z,102445.12
2018-10-21T19:05:12.597Z,102447.05
2018-10-21T19:07:41.508Z,102445.64
2018-10-21T19:10:12.730Z,102440.20
2018-10-21T19:12:41.690Z,102435.59
2018-10-21T19:15:12.347Z,102436.68
2018-10-21T19:17:42.032Z,102437.47
2018-10-21T19:20:13.603Z,102443.47
2018-10-21T19:22:42.736Z,102438.83
2018-10-21T19:25:12.780Z,102434.50
2018-10-21T19:27:42.238Z,102449.17
2018-10-21T19:30:12.164Z,102447.81
2018-10-21T19:32:41.629Z,102450.26
2018-10-21T19:35:11.658Z,102450.53
2018-10-21T19:37:40.703Z,102445.62
2018-10-21T19:40:11.834Z,102444.55
2018-10-21T19:42:41.451Z,102442.97
2018-10-21T19:45:11.406Z,102448.14
2018-10-21T19:47:41.021Z,102453.86
2018-10-21T19:50:12.055Z,102455.51
2018-10-21T19:52:42.194Z,102456.31
2018-10-21T19:55:11.773Z,102452.52
2018-10-21T19:57:40.610Z,102459.30
2018-10-21T20:00:11.531Z,102455.74
2018-10-21T20:02:40.604Z,102462.53
2018-10-21T20:05:09.716Z,102461.45
2018-10-21T20:07:38.438Z,102462.25
2018-10-21T20:10:09.007Z,102457.37
2018-10-21T20:12:44.359Z,102456.00
2018-10-21T20:15:13.816Z,102457.88
2018-10-21T20:17:42.599Z,102452.19
2018-10-21T20:20:12.334Z,102451.34
2018-10-21T20:22:41.184Z,102451.06
2018-10-21T20:25:12.322Z,102455.98
2018-10-21T20:27:41.500Z,102444.53
2018-10-21T20:30:11.889Z,102443.17
2018-10-21T20:32:40.678Z,102444.26
2018-10-21T20:35:10.460Z,102445.62
2018-10-21T20:37:39.546Z,102441.30
2018-10-21T20:40:09.594Z,102438.31
2018-10-21T20:42:38.560Z,102438.61
2018-10-21T20:45:08.876Z,102439.15
2018-10-21T20:47:37.701Z,102437.00
2018-10-21T20:50:06.654Z,102425.85
2018-10-21T20:52:35.457Z,102433.50
2018-10-21T20:55:04.478Z,102430.78
2018-10-21T20:57:33.356Z,102434.88
2018-10-21T21:00:02.154Z,102438.15
2018-10-21T21:02:31.239Z,102431.09
2018-10-21T21:05:00.220Z,102426.22
2018-10-21T21:07:28.994Z,102427.31
2018-10-21T21:09:57.828Z,102422.16
2018-10-21T21:12:26.950Z,102426.77
2018-10-21T21:14:56.008Z,102428.17
2018-10-21T21:17:24.795Z,102429.25
2018-10-21T21:19:55.057Z,102443.37
2018-10-21T21:22:23.912Z,102442.84
2018-10-21T21:24:53.042Z,102440.93
2018-10-21T21:27:21.892Z,102446.64
2018-10-21T21:29:50.994Z,102446.09
2018-10-21T21:32:19.965Z,102443.92
2018-10-21T21:34:48.761Z,102452.59
2018-10-21T21:37:17.951Z,102449.63
2018-10-21T21:39:46.818Z,102456.67
2018-10-21T21:42:15.693Z,102464.58
2018-10-21T21:44:44.842Z,102468.91
2018-10-21T21:47:13.656Z,102479.48
2018-10-21T21:49:42.775Z,102478.95
2018-10-21T21:52:12.057Z,102480.31
2018-10-21T21:54:40.830Z,102481.11
2018-10-21T21:57:09.835Z,102481.39
2018-10-21T21:59:39.123Z,102484.63
2018-10-21T22:02:07.937Z,102483.02
2018-10-21T22:04:36.935Z,102477.02
2018-10-21T22:07:06.111Z,102469.66
2018-10-21T22:09:34.983Z,102468.86
2018-10-21T22:12:03.816Z,102462.61
2018-10-21T22:14:32.803Z,102459.62
2018-10-21T22:17:01.662Z,102451.47
2018-10-21T22:19:30.505Z,102451.20
2018-10-21T22:21:59.384Z,102450.92
2018-10-21T22:24:28.221Z,102446.33
2018-10-21T22:26:57.084Z,102447.97
2018-10-21T22:29:26.236Z,102442.53
2018-10-21T22:31:55.076Z,102429.45
2018-10-21T22:34:23.970Z,102428.65
2018-10-21T22:36:53.007Z,102419.14
2018-10-21T22:39:22.149Z,102427.01
2018-10-21T22:41:51.359Z,102426.73
2018-10-21T22:44:21.107Z,102433.25
2018-10-21T22:46:50.367Z,102432.44
2018-10-21T22:49:19.204Z,102428.88
2018-10-21T22:51:48.525Z,102446.83
2018-10-21T22:54:17.407Z,102450.63
2018-10-21T22:56:46.168Z,102438.09
2018-10-21T22:59:14.930Z,102437.30
2018-10-21T23:01:43.733Z,102446.26
2018-10-21T23:04:12.866Z,102455.52
2018-10-21T23:06:41.678Z,102458.23
2018-10-21T23:09:11.723Z,102461.47
2018-10-21T23:11:40.875Z,102464.19
2018-10-21T23:14:11.020Z,102459.82
2018-10-21T23:16:40.660Z,102453.84
2018-10-21T23:19:20.473Z,102455.45
2018-10-21T23:21:49.445Z,102447.84
2018-10-21T23:24:19.433Z,102455.16
2018-10-21T23:26:48.211Z,102454.63
2018-10-21T23:29:17.235Z,102448.34
2018-10-21T23:31:46.077Z,102447.53
2018-10-21T23:34:15.631Z,102446.18
2018-10-21T23:36:44.644Z,102444.83
2018-10-21T23:39:13.516Z,102445.11
2018-10-21T23:41:42.370Z,102449.47
2018-10-21T23:44:11.229Z,102437.47
2018-10-21T23:46:40.584Z,102439.66
2018-10-21T23:49:09.806Z,102433.95
2018-10-21T23:51:39.404Z,102428.78
2018-10-21T23:54:08.516Z,102437.75
2018-10-21T23:56:37.306Z,102431.77
2018-10-21T23:59:07.575Z,102435.86
